createdAt,value
2018-05-06T00:01:04.272Z,3.40
2018-05-06T00:03:31.784Z,3.40
2018-05-06T00:05:59.302Z,4.00
2018-05-06T00:08:26.785Z,3.30
2018-05-06T00:10:54.319Z,3.13
2018-05-06T00:13:21.797Z,3.20
2018-05-06T00:15:49.309Z,3.70
2018-05-06T00:18:16.784Z,4.10
2018-05-06T00:20:44.298Z,2.97
2018-05-06T00:23:11.772Z,3.70
2018-05-06T00:25:39.296Z,3.27
2018-05-06T00:28:06.797Z,3.13
2018-05-06T00:30:34.301Z,4.07
2018-05-06T00:33:01.785Z,3.40
2018-05-06T00:35:29.309Z,2.97
2018-05-06T00:37:56.802Z,3.33
2018-05-06T00:40:24.325Z,3.53
2018-05-06T00:42:51.829Z,3.63
2018-05-06T00:45:19.323Z,3.47
2018-05-06T00:47:46.845Z,3.70
2018-05-06T00:50:14.392Z,3.10
2018-05-06T00:52:41.897Z,3.43
2018-05-06T00:55:09.381Z,4.60
2018-05-06T00:57:36.889Z,3.30
2018-05-06T01:00:05.254Z,2.80
2018-05-06T01:02:32.772Z,3.23
2018-05-06T01:05:00.545Z,2.63
2018-05-06T01:07:28.049Z,2.93
2018-05-06T01:09:55.528Z,3.80
2018-05-06T01:12:23.033Z,2.90
2018-05-06T01:14:50.531Z,3.37
2018-05-06T01:17:18.010Z,2.90
2018-05-06T01:19:45.509Z,3.83
2018-05-06T01:22:12.989Z,2.90
2018-05-06T01:24:40.493Z,3.60
2018-05-06T01:27:07.970Z,3.10
2018-05-06T01:29:35.477Z,3.20
2018-05-06T01:32:02.965Z,2.80
2018-05-06T01:34:30.469Z,3.10
2018-05-06T01:36:57.945Z,3.20
2018-05-06T01:39:25.451Z,3.27
2018-05-06T01:41:52.945Z,3.60
2018-05-06T01:44:20.452Z,3.73
2018-05-06T01:46:47.929Z,3.13
2018-05-06T01:49:15.434Z,3.57
2018-05-06T01:51:42.917Z,2.87
2018-05-06T01:54:10.449Z,3.87
2018-05-06T01:56:37.940Z,2.80
2018-05-06T01:59:05.441Z,3.00
2018-05-06T02:01:32.917Z,2.80
2018-05-06T02:04:00.537Z,3.10
2018-05-06T02:06:28.089Z,3.10
2018-05-06T02:08:55.593Z,3.00
2018-05-06T02:11:23.096Z,3.83
2018-05-06T02:13:50.609Z,3.33
2018-05-06T02:16:18.113Z,3.30
2018-05-06T02:18:45.600Z,3.00
2018-05-06T02:21:13.101Z,3.20
2018-05-06T02:23:40.600Z,3.33
2018-05-06T02:26:08.129Z,4.27
2018-05-06T02:28:35.609Z,3.17
2018-05-06T02:31:03.119Z,3.17
2018-05-06T02:33:30.609Z,2.80
2018-05-06T02:35:58.139Z,2.93
2018-05-06T02:38:25.621Z,3.20
2018-05-06T02:40:53.124Z,3.10
2018-05-06T02:43:20.605Z,3.60
2018-05-06T02:45:48.241Z,2.80
2018-05-06T02:48:15.745Z,3.13
2018-05-06T02:50:43.229Z,2.70
2018-05-06T02:53:10.746Z,3.23
2018-05-06T02:55:38.221Z,3.33
2018-05-06T02:58:05.789Z,4.07
2018-05-06T03:00:33.288Z,3.87
2018-05-06T03:03:00.813Z,3.37
2018-05-06T03:05:28.288Z,3.17
2018-05-06T03:07:55.789Z,3.13
2018-05-06T03:10:23.273Z,3.43
2018-05-06T03:12:50.777Z,2.60
2018-05-06T03:15:18.266Z,3.30
2018-05-06T03:17:45.778Z,3.20
2018-05-06T03:20:13.273Z,3.40
2018-05-06T03:22:40.808Z,3.87
2018-05-06T03:25:08.310Z,2.93
2018-05-06T03:27:35.825Z,3.53
2018-05-06T03:30:03.309Z,3.73
2018-05-06T03:32:30.792Z,2.90
2018-05-06T03:34:58.293Z,2.57
2018-05-06T03:37:25.769Z,2.97
2018-05-06T03:39:53.281Z,3.77
2018-05-06T03:42:20.758Z,2.97
2018-05-06T03:44:48.289Z,3.43
2018-05-06T03:47:15.784Z,3.27
2018-05-06T03:49:43.297Z,3.07
2018-05-06T03:52:10.793Z,2.87
2018-05-06T03:54:38.297Z,3.03
2018-05-06T03:57:17.668Z,3.20
2018-05-06T03:59:57.056Z,2.90
2018-05-06T04:02:39.409Z,2.20
2018-05-06T04:05:06.952Z,2.03
2018-05-06T04:07:34.480Z,2.70
2018-05-06T04:10:01.970Z,2.27
2018-05-06T04:12:29.452Z,2.07
2018-05-06T04:14:56.952Z,2.60
2018-05-06T04:17:24.432Z,2.10
2018-05-06T04:19:51.943Z,2.20
2018-05-06T04:22:19.421Z,2.80
2018-05-06T04:24:46.933Z,2.17
2018-05-06T04:27:14.419Z,1.60
2018-05-06T04:29:41.953Z,2.23
2018-05-06T04:32:09.436Z,2.37
2018-05-06T04:34:36.978Z,2.10
2018-05-06T04:37:04.468Z,2.20
2018-05-06T04:39:31.989Z,2.60
2018-05-06T04:41:59.467Z,2.40
2018-05-06T04:44:27.163Z,2.30
2018-05-06T04:46:54.645Z,1.87
2018-05-06T04:49:22.128Z,1.87
2018-05-06T04:51:49.653Z,2.10
2018-05-06T04:54:17.145Z,2.90
2018-05-06T04:56:44.656Z,1.70
2018-05-06T04:59:12.137Z,2.40
2018-05-06T05:01:39.641Z,1.87
2018-05-06T05:04:07.137Z,1.87
2018-05-06T05:06:34.661Z,2.23
2018-05-06T05:09:02.148Z,1.70
2018-05-06T05:11:29.658Z,1.30
2018-05-06T05:13:57.136Z,2.00
2018-05-06T05:16:24.640Z,1.80
2018-05-06T05:18:52.125Z,1.20
2018-05-06T05:21:19.601Z,1.60
2018-05-06T05:23:47.197Z,1.40
2018-05-06T05:26:14.718Z,2.50
2018-05-06T05:28:42.229Z,1.77
2018-05-06T05:31:09.720Z,1.43
2018-05-06T05:33:37.248Z,2.33
2018-05-06T05:36:04.737Z,1.70
2018-05-06T05:38:32.241Z,2.20
2018-05-06T05:40:59.720Z,1.73
2018-05-06T05:43:27.261Z,1.53
2018-05-06T05:45:54.761Z,1.23
2018-05-06T05:48:22.265Z,1.60
2018-05-06T05:50:49.744Z,1.47
2018-05-06T05:53:17.233Z,1.77
2018-05-06T05:55:44.765Z,1.50
2018-05-06T05:58:12.280Z,1.33
2018-05-06T06:00:39.790Z,2.20
2018-05-06T06:03:07.269Z,1.70
2018-05-06T06:05:34.779Z,1.43
2018-05-06T06:08:02.257Z,1.57
2018-05-06T06:10:29.761Z,1.43
2018-05-06T06:12:57.245Z,1.57
2018-05-06T06:15:24.774Z,1.50
2018-05-06T06:17:52.261Z,1.47
2018-05-06T06:20:19.768Z,1.30
2018-05-06T06:22:47.253Z,2.03
2018-05-06T06:25:15.038Z,1.83
2018-05-06T06:27:42.527Z,1.50
2018-05-06T06:30:10.006Z,1.57
2018-05-06T06:32:37.509Z,1.00
2018-05-06T06:35:04.993Z,1.47
2018-05-06T06:37:32.501Z,1.90
2018-05-06T06:39:59.997Z,1.30
2018-05-06T06:42:27.510Z,1.47
2018-05-06T06:44:55.025Z,1.40
2018-05-06T06:47:22.629Z,1.20
2018-05-06T06:49:50.137Z,1.37
2018-05-06T06:52:17.641Z,1.13
2018-05-06T06:54:45.125Z,1.07
2018-05-06T06:57:12.657Z,1.07
2018-05-06T06:59:40.156Z,1.30
2018-05-06T07:02:07.660Z,1.10
2018-05-06T07:04:35.144Z,1.63
2018-05-06T07:07:02.652Z,1.10
2018-05-06T07:09:30.169Z,1.10
2018-05-06T07:11:57.688Z,2.10
2018-05-06T07:14:25.189Z,1.10
2018-05-06T07:16:52.690Z,1.40
2018-05-06T07:19:20.273Z,0.90
2018-05-06T07:21:47.702Z,1.47
2018-05-06T07:24:15.201Z,1.10
2018-05-06T07:26:42.677Z,1.53
2018-05-06T07:29:10.205Z,1.10
2018-05-06T07:31:37.755Z,1.60
2018-05-06T07:34:05.213Z,1.80
2018-05-06T07:36:32.689Z,1.73
2018-05-06T07:39:00.265Z,1.53
2018-05-06T07:41:27.782Z,0.90
2018-05-06T07:43:55.533Z,1.17
2018-05-06T07:46:23.013Z,1.07
2018-05-06T07:48:50.523Z,2.03
2018-05-06T07:51:18.025Z,1.13
2018-05-06T07:53:45.513Z,1.00
2018-05-06T07:56:13.029Z,1.20
2018-05-06T07:58:40.512Z,1.43
2018-05-06T08:01:08.013Z,1.83
2018-05-06T08:03:35.493Z,1.30
2018-05-06T08:06:03.004Z,1.90
2018-05-06T08:08:30.486Z,1.77
2018-05-06T08:10:57.988Z,1.77
2018-05-06T08:13:25.477Z,1.37
2018-05-06T08:15:53.004Z,1.87
2018-05-06T08:18:20.488Z,1.20
2018-05-06T08:20:47.997Z,1.50
2018-05-06T08:23:15.504Z,1.70
2018-05-06T08:25:42.995Z,1.33
2018-05-06T08:28:10.525Z,1.80
2018-05-06T08:30:38.009Z,1.77
2018-05-06T08:33:05.513Z,1.40
2018-05-06T08:35:33.010Z,1.57
2018-05-06T08:38:00.513Z,2.00
2018-05-06T08:40:28.009Z,1.53
2018-05-06T08:42:55.526Z,1.90
2018-05-06T08:45:23.090Z,2.03
2018-05-06T08:47:50.621Z,1.67
2018-05-06T08:50:18.116Z,1.43
2018-05-06T08:52:45.643Z,2.13
2018-05-06T08:55:13.132Z,1.57
2018-05-06T08:57:40.628Z,1.93
2018-05-06T09:00:08.169Z,1.73
2018-05-06T09:02:35.685Z,1.40
2018-05-06T09:05:03.209Z,1.80
2018-05-06T09:07:30.701Z,1.60
2018-05-06T09:09:58.200Z,1.67
2018-05-06T09:12:25.686Z,1.67
2018-05-06T09:14:53.229Z,2.30
2018-05-06T09:17:20.709Z,1.33
2018-05-06T09:19:48.289Z,1.77
2018-05-06T09:22:15.749Z,1.90
2018-05-06T09:24:43.271Z,2.03
2018-05-06T09:27:10.766Z,1.87
2018-05-06T09:29:38.721Z,1.60
2018-05-06T09:32:06.205Z,1.90
2018-05-06T09:34:33.692Z,2.40
2018-05-06T09:37:02.078Z,2.20
2018-05-06T09:39:29.565Z,2.33
2018-05-06T09:41:57.733Z,1.67
2018-05-06T09:44:25.231Z,1.37
2018-05-06T09:46:52.717Z,2.00
2018-05-06T09:49:20.220Z,1.83
2018-05-06T09:51:47.736Z,2.00
2018-05-06T09:54:15.388Z,1.80
2018-05-06T09:56:42.868Z,2.03
2018-05-06T09:59:10.354Z,2.00
2018-05-06T10:01:38.001Z,2.73
2018-05-06T10:04:05.485Z,2.03
2018-05-06T10:06:32.997Z,1.90
2018-05-06T10:09:00.950Z,2.10
2018-05-06T10:11:28.433Z,1.73
2018-05-06T10:13:56.043Z,2.20
2018-05-06T10:16:23.601Z,2.37
2018-05-06T10:18:51.081Z,1.50
2018-05-06T10:21:18.617Z,1.80
2018-05-06T10:23:46.101Z,2.40
2018-05-06T10:26:13.681Z,2.00
2018-05-06T10:28:41.126Z,2.27
2018-05-06T10:31:08.601Z,1.93
2018-05-06T10:33:36.117Z,2.70
2018-05-06T10:36:03.595Z,2.03
2018-05-06T10:38:31.313Z,2.60
2018-05-06T10:40:58.814Z,2.73
2018-05-06T10:43:26.296Z,2.13
2018-05-06T10:45:53.826Z,2.23
2018-05-06T10:48:21.348Z,1.90
2018-05-06T10:50:49.057Z,2.30
2018-05-06T10:53:16.537Z,1.80
2018-05-06T10:55:44.022Z,2.20
2018-05-06T10:58:11.521Z,2.50
2018-05-06T11:00:39.040Z,1.90
2018-05-06T11:03:06.550Z,2.50
2018-05-06T11:05:34.037Z,2.43
2018-05-06T11:08:01.521Z,2.80
2018-05-06T11:10:29.181Z,2.23
2018-05-06T11:12:56.668Z,2.73
2018-05-06T11:15:24.449Z,2.40
2018-05-06T11:17:51.981Z,2.37
2018-05-06T11:20:19.465Z,2.10
2018-05-06T11:22:46.966Z,2.30
2018-05-06T11:25:14.472Z,2.90
2018-05-06T11:27:42.136Z,2.03
2018-05-06T11:30:09.625Z,2.27
2018-05-06T11:32:37.105Z,1.90
2018-05-06T11:35:04.614Z,2.23
2018-05-06T11:37:32.105Z,1.83
2018-05-06T11:39:59.762Z,2.00
2018-05-06T11:42:27.250Z,3.00
2018-05-06T11:44:54.826Z,2.10
2018-05-06T11:47:22.340Z,1.40
2018-05-06T11:49:49.816Z,2.00
2018-05-06T11:52:17.349Z,1.60
2018-05-06T11:54:44.829Z,1.40
2018-05-06T11:57:12.304Z,1.80
2018-05-06T11:59:39.813Z,1.97
2018-05-06T12:02:07.289Z,1.60
2018-05-06T12:04:35.172Z,1.83
2018-05-06T12:07:02.657Z,1.40
2018-05-06T12:09:30.136Z,1.67
2018-05-06T12:11:57.648Z,1.20
2018-05-06T12:14:25.125Z,1.60
2018-05-06T12:16:52.876Z,1.50
2018-05-06T12:19:20.353Z,1.77
2018-05-06T12:21:47.830Z,1.53
2018-05-06T12:24:15.366Z,1.57
2018-05-06T12:26:42.856Z,1.93
2018-05-06T12:29:10.593Z,1.63
2018-05-06T12:31:38.085Z,1.10
2018-05-06T12:34:05.569Z,2.03
2018-05-06T12:36:33.069Z,1.53
2018-05-06T12:39:00.552Z,1.27
2018-05-06T12:41:28.168Z,1.77
2018-05-06T12:43:55.657Z,2.30
2018-05-06T12:46:23.140Z,1.60
2018-05-06T12:48:50.648Z,1.20
2018-05-06T12:51:18.125Z,1.33
2018-05-06T12:53:45.848Z,1.33
2018-05-06T12:56:13.329Z,1.50
2018-05-06T12:58:40.844Z,1.00
2018-05-06T13:01:08.369Z,0.93
2018-05-06T13:03:35.857Z,1.37
2018-05-06T13:06:03.385Z,0.90
2018-05-06T13:08:30.860Z,0.80
2018-05-06T13:10:58.352Z,1.07
2018-05-06T13:13:25.869Z,1.30
2018-05-06T13:15:53.349Z,1.67
2018-05-06T13:18:21.305Z,1.40
2018-05-06T13:20:48.819Z,0.80
2018-05-06T13:23:16.298Z,1.03
2018-05-06T13:25:43.813Z,1.47
2018-05-06T13:28:11.293Z,1.47
2018-05-06T13:30:39.168Z,1.20
2018-05-06T13:33:06.645Z,1.00
2018-05-06T13:35:34.133Z,0.97
2018-05-06T13:38:01.641Z,0.93
2018-05-06T13:40:29.121Z,0.70
2018-05-06T13:42:56.953Z,1.33
2018-05-06T13:45:24.440Z,1.30
2018-05-06T13:47:51.941Z,1.57
2018-05-06T13:50:19.461Z,0.80
2018-05-06T13:52:46.962Z,1.60
2018-05-06T13:55:14.687Z,1.50
2018-05-06T13:57:42.184Z,0.80
2018-05-06T14:00:09.676Z,1.23
2018-05-06T14:02:37.181Z,1.03
2018-05-06T14:05:04.679Z,1.03
2018-05-06T14:07:32.341Z,1.13
2018-05-06T14:09:59.829Z,0.80
2018-05-06T14:12:27.305Z,1.10
2018-05-06T14:14:54.973Z,1.00
2018-05-06T14:17:22.449Z,1.00
2018-05-06T14:19:50.097Z,1.00
2018-05-06T14:22:17.585Z,0.83
2018-05-06T14:24:45.062Z,1.37
2018-05-06T14:27:12.758Z,1.10
2018-05-06T14:29:40.240Z,0.90
2018-05-06T14:32:07.964Z,0.90
2018-05-06T14:34:35.450Z,0.77
2018-05-06T14:37:02.951Z,1.37
2018-05-06T14:39:30.517Z,1.03
2018-05-06T14:41:58.031Z,1.20
2018-05-06T14:44:25.725Z,0.83
2018-05-06T14:47:05.017Z,1.23
2018-05-06T14:49:33.006Z,1.30
2018-05-06T14:52:00.501Z,0.87
2018-05-06T14:54:27.981Z,1.20
2018-05-06T14:56:55.512Z,1.10
2018-05-06T14:59:22.996Z,0.90
2018-05-06T15:01:50.707Z,1.07
2018-05-06T15:04:18.198Z,1.00
2018-05-06T15:06:45.701Z,1.07
2018-05-06T15:09:13.228Z,0.83
2018-05-06T15:11:40.713Z,0.83
2018-05-06T15:14:08.232Z,0.83
2018-05-06T15:16:35.717Z,1.30
2018-05-06T15:19:03.197Z,0.73
2018-05-06T15:21:30.705Z,0.87
2018-05-06T15:23:58.186Z,0.97
2018-05-06T15:26:26.116Z,1.10
2018-05-06T15:28:53.608Z,0.87
2018-05-06T15:31:21.086Z,1.10
2018-05-06T15:33:48.633Z,0.90
2018-05-06T15:36:16.118Z,0.80
2018-05-06T15:38:43.714Z,0.83
2018-05-06T15:41:11.294Z,1.00
2018-05-06T15:43:38.720Z,1.23
2018-05-06T15:46:06.249Z,0.70
2018-05-06T15:48:33.733Z,0.90
2018-05-06T15:51:01.450Z,1.73
2018-05-06T15:53:28.930Z,1.00
2018-05-06T15:55:56.416Z,1.33
2018-05-06T15:58:23.929Z,1.23
2018-05-06T16:00:51.412Z,1.00
2018-05-06T16:03:31.290Z,1.10
2018-05-06T16:05:58.773Z,0.93
2018-05-06T16:08:26.346Z,0.93
2018-05-06T16:10:53.860Z,3.37
2018-05-06T16:13:21.349Z,1.00
2018-05-06T16:15:48.873Z,1.00
2018-05-06T16:18:16.365Z,1.23
2018-05-06T16:20:43.849Z,1.03
2018-05-06T16:23:11.373Z,0.90
2018-05-06T16:25:38.857Z,1.00
2018-05-06T16:28:06.373Z,0.97
2018-05-06T16:30:33.861Z,1.73
2018-05-06T16:33:01.345Z,0.93
2018-05-06T16:35:28.880Z,1.43
2018-05-06T16:37:56.389Z,1.37
2018-05-06T16:40:23.926Z,1.00
2018-05-06T16:42:51.433Z,1.13
2018-05-06T16:45:18.917Z,1.17
2018-05-06T16:47:46.421Z,0.90
2018-05-06T16:50:13.916Z,0.80
2018-05-06T16:52:41.918Z,0.97
2018-05-06T16:55:09.426Z,0.80
2018-05-06T16:57:36.920Z,0.90
2018-05-06T17:00:04.429Z,0.93
2018-05-06T17:02:31.953Z,0.67
2018-05-06T17:04:59.470Z,0.83
2018-05-06T17:07:27.062Z,0.60
2018-05-06T17:09:54.522Z,0.63
2018-05-06T17:12:22.103Z,1.27
2018-05-06T17:14:49.624Z,0.83
2018-05-06T17:17:17.424Z,0.60
2018-05-06T17:19:45.001Z,0.63
2018-05-06T17:22:12.500Z,1.00
2018-05-06T17:24:39.978Z,0.83
2018-05-06T17:27:07.470Z,0.90
2018-05-06T17:29:35.129Z,0.70
2018-05-06T17:32:02.618Z,0.73
2018-05-06T17:34:30.127Z,0.77
2018-05-06T17:36:57.654Z,0.90
2018-05-06T17:39:25.148Z,0.70
2018-05-06T17:41:52.921Z,0.83
2018-05-06T17:44:20.457Z,1.30
2018-05-06T17:46:48.009Z,0.97
2018-05-06T17:49:15.557Z,0.87
2018-05-06T17:51:43.049Z,0.77
2018-05-06T17:54:11.256Z,1.60
2018-05-06T17:56:38.753Z,1.63
2018-05-06T17:59:06.248Z,1.03
2018-05-06T18:01:33.812Z,0.97
2018-05-06T18:04:01.302Z,1.00
2018-05-06T18:06:28.831Z,0.93
2018-05-06T18:08:56.684Z,1.10
2018-05-06T18:11:24.179Z,0.80
2018-05-06T18:13:51.721Z,1.23
2018-05-06T18:16:19.209Z,1.20
2018-05-06T18:18:47.150Z,1.00
2018-05-06T18:21:14.640Z,1.20
2018-05-06T18:23:42.185Z,1.47
2018-05-06T18:26:10.085Z,1.13
2018-05-06T18:28:37.576Z,1.20
2018-05-06T18:31:05.346Z,1.10
2018-05-06T18:33:32.869Z,1.10
2018-05-06T18:36:01.070Z,1.10
2018-05-06T18:38:28.591Z,1.30
2018-05-06T18:40:56.112Z,1.10
2018-05-06T18:43:23.899Z,1.50
2018-05-06T18:45:51.438Z,1.73
2018-05-06T18:48:18.956Z,0.90
2018-05-06T18:50:46.516Z,0.90
2018-05-06T18:53:14.042Z,1.30
2018-05-06T18:55:42.080Z,1.03
2018-05-06T18:58:09.862Z,1.30
2018-05-06T19:00:37.938Z,1.00
2018-05-06T19:03:05.486Z,1.07
2018-05-06T19:05:35.048Z,0.97
2018-05-06T19:08:03.481Z,1.20
2018-05-06T19:10:32.283Z,0.90
2018-05-06T19:13:00.207Z,1.77
2018-05-06T19:15:29.715Z,1.40
2018-05-06T19:17:59.204Z,1.17
2018-05-06T19:20:26.921Z,0.90
2018-05-06T19:22:54.713Z,1.73
2018-05-06T19:25:22.363Z,1.20
2018-05-06T19:27:50.136Z,2.07
2018-05-06T19:30:17.996Z,0.83
2018-05-06T19:32:46.085Z,0.90
2018-05-06T19:35:14.411Z,1.20
2018-05-06T19:37:43.417Z,1.50
2018-05-06T19:40:11.893Z,1.30
2018-05-06T19:42:41.319Z,1.23
2018-05-06T19:45:09.201Z,1.40
2018-05-06T19:47:37.175Z,1.10
2018-05-06T19:50:04.881Z,0.80
2018-05-06T19:52:32.833Z,1.73
2018-05-06T19:55:01.165Z,1.00
2018-05-06T19:57:28.837Z,1.30
2018-05-06T19:59:56.454Z,1.30
2018-05-06T20:02:25.274Z,0.93
2018-05-06T20:04:53.354Z,0.90
2018-05-06T20:07:21.436Z,0.80
2018-05-06T20:09:50.181Z,1.20
2018-05-06T20:12:18.328Z,1.10
2018-05-06T20:14:46.090Z,1.20
2018-05-06T20:17:13.672Z,0.90
2018-05-06T20:19:41.342Z,1.20
2018-05-06T20:22:09.183Z,1.00
2018-05-06T20:24:37.251Z,0.93
2018-05-06T20:27:04.775Z,1.20
2018-05-06T20:29:32.330Z,0.90
2018-05-06T20:32:00.105Z,0.90
2018-05-06T20:34:27.650Z,1.00
2018-05-06T20:36:55.304Z,1.07
2018-05-06T20:39:22.805Z,1.27
2018-05-06T20:41:50.856Z,1.00
2018-05-06T20:44:20.073Z,1.10
2018-05-06T20:46:47.697Z,1.20
2018-05-06T20:49:15.197Z,0.80
2018-05-06T20:51:42.687Z,1.03
2018-05-06T20:54:10.212Z,0.90
2018-05-06T20:56:37.708Z,1.33
2018-05-06T20:59:05.334Z,0.70
2018-05-06T21:01:32.824Z,0.90
2018-05-06T21:04:00.424Z,1.23
2018-05-06T21:06:27.861Z,1.20
2018-05-06T21:08:55.349Z,1.30
2018-05-06T21:11:23.099Z,1.53
2018-05-06T21:13:50.597Z,1.07
2018-05-06T21:16:18.141Z,1.60
2018-05-06T21:18:45.631Z,1.43
2018-05-06T21:21:13.126Z,1.20
2018-05-06T21:23:41.081Z,1.60
2018-05-06T21:26:08.565Z,2.33
2018-05-06T21:28:36.058Z,1.50
2018-05-06T21:31:03.793Z,1.37
2018-05-06T21:33:31.413Z,1.20
2018-05-06T21:35:59.161Z,1.00
2018-05-06T21:38:26.761Z,1.10
2018-05-06T21:40:54.249Z,1.20
2018-05-06T21:43:21.893Z,1.30
2018-05-06T21:45:49.279Z,0.70
2018-05-06T21:48:16.833Z,0.70
2018-05-06T21:50:44.333Z,1.37
2018-05-06T21:53:11.841Z,1.23
2018-05-06T21:55:39.345Z,1.30
2018-05-06T21:58:06.841Z,1.00
2018-05-06T22:00:34.524Z,1.20
2018-05-06T22:03:02.009Z,0.93
2018-05-06T22:05:29.497Z,0.80
2018-05-06T22:07:57.017Z,0.80
2018-05-06T22:10:24.500Z,1.10
2018-05-06T22:12:52.381Z,0.87
2018-05-06T22:15:19.869Z,1.00
2018-05-06T22:17:47.365Z,1.13
2018-05-06T22:20:14.869Z,1.30
2018-05-06T22:22:42.349Z,0.90
2018-05-06T22:25:10.033Z,1.00
2018-05-06T22:27:37.513Z,1.00
2018-05-06T22:30:05.129Z,0.93
2018-05-06T22:32:32.641Z,1.17
2018-05-06T22:35:00.121Z,1.07
2018-05-06T22:37:27.651Z,1.33
2018-05-06T22:39:55.148Z,0.83
2018-05-06T22:42:22.629Z,1.37
2018-05-06T22:44:50.136Z,1.07
2018-05-06T22:47:17.613Z,1.00
2018-05-06T22:49:45.356Z,1.23
2018-05-06T22:52:12.844Z,1.00
2018-05-06T22:54:40.321Z,1.23
2018-05-06T22:57:07.824Z,0.73
2018-05-06T22:59:35.339Z,0.70
2018-05-06T23:02:03.113Z,1.10
2018-05-06T23:04:30.608Z,1.00
2018-05-06T23:06:58.097Z,0.80
2018-05-06T23:09:25.604Z,1.53
2018-05-06T23:11:53.092Z,1.10
2018-05-06T23:14:20.779Z,1.23
2018-05-06T23:16:48.269Z,1.20
2018-05-06T23:19:15.750Z,1.10
2018-05-06T23:21:43.306Z,1.30
2018-05-06T23:24:10.761Z,1.00
2018-05-06T23:26:38.288Z,1.07
2018-05-06T23:29:05.817Z,0.93
2018-05-06T23:31:33.312Z,0.60
2018-05-06T23:34:00.813Z,1.17
2018-05-06T23:36:28.293Z,1.10
2018-05-06T23:38:55.818Z,1.10
2018-05-06T23:41:23.359Z,0.90
2018-05-06T23:43:50.927Z,1.00
2018-05-06T23:46:18.377Z,1.20
2018-05-06T23:48:45.873Z,1.47
2018-05-06T23:51:13.739Z,0.93
2018-05-06T23:53:41.225Z,0.93
2018-05-06T23:56:08.720Z,1.27
2018-05-06T23:58:36.222Z,1.00
